AFL796 UWWW-LTAI
Flight info
| Callsign | AFL796 |
|---|---|
| Flight time | 3h 38m |
| Altitude | 34000 |
| Route | N0460F340 NIDOG T790 RORNA T789 DAFOS P135 KR G900 ODIRA UW96 SIN UT61 BAG UP29 DAMLA |
| Aircraft | B738/M-VGDW/C |
Departure
| Time | 2025-10-08 01:13 |
|---|---|
| Airport | Kurumoch International Airport (UWWW) |
Arrival
| Time | 2025-10-08 04:51 |
|---|---|
| Airport | Antalya International Airport (LTAI) |
| Time | Latitude | Longitude | Altitude | Speed | Heading |
|---|---|---|---|---|---|
| 2025-10-08 00:46 | 53.51062 | 50.16172 | 485 ft | 0 kts | 331° |
| 2025-10-08 01:03 | 53.51115 | 50.16141 | 484 ft | 7 kts | 22° |
| 2025-10-08 01:04 | 53.51194 | 50.16337 | 484 ft | 13 kts | 62° |
| 2025-10-08 01:04 | 53.51226 | 50.16446 | 484 ft | 11 kts | 63° |
| 2025-10-08 01:05 | 53.51308 | 50.16711 | 484 ft | 9 kts | 85° |
| 2025-10-08 01:05 | 53.51176 | 50.16842 | 484 ft | 15 kts | 160° |
| 2025-10-08 01:06 | 53.50947 | 50.16978 | 484 ft | 20 kts | 160° |
| 2025-10-08 01:06 | 53.50585 | 50.17198 | 484 ft | 13 kts | 160° |
| 2025-10-08 01:07 | 53.50418 | 50.17302 | 484 ft | 12 kts | 159° |
| 2025-10-08 01:07 | 53.50262 | 50.17399 | 484 ft | 12 kts | 160° |
| 2025-10-08 01:08 | 53.50171 | 50.17452 | 484 ft | 15 kts | 161° |
| 2025-10-08 01:08 | 53.49934 | 50.17594 | 484 ft | 20 kts | 160° |
| 2025-10-08 01:09 | 53.49650 | 50.17768 | 484 ft | 22 kts | 160° |
| 2025-10-08 01:09 | 53.49370 | 50.17936 | 484 ft | 18 kts | 160° |
| 2025-10-08 01:10 | 53.49339 | 50.18352 | 484 ft | 11 kts | 7° |
| 2025-10-08 01:10 | 53.49355 | 50.18348 | 484 ft | 0 kts | 340° |
| 2025-10-08 01:11 | 53.49378 | 50.18335 | 484 ft | 12 kts | 340° |
| 2025-10-08 01:11 | 53.50159 | 50.17866 | 484 ft | 109 kts | 336° |
| 2025-10-08 01:12 | 53.52010 | 50.16762 | 878 ft | 150 kts | 341° |
| 2025-10-08 01:12 | 53.54086 | 50.15522 | 1649 ft | 169 kts | 341° |
| 2025-10-08 01:13 | 53.56314 | 50.14186 | 2546 ft | 172 kts | 341° |
| 2025-10-08 01:13 | 53.58600 | 50.12812 | 3359 ft | 176 kts | 341° |
| 2025-10-08 01:14 | 53.60443 | 50.10069 | 3863 ft | 201 kts | 287° |
| 2025-10-08 01:14 | 53.59793 | 50.05217 | 4268 ft | 237 kts | 243° |
| 2025-10-08 01:15 | 53.58365 | 49.99962 | 5066 ft | 258 kts | 250° |
| 2025-10-08 01:15 | 53.57127 | 49.94159 | 6258 ft | 266 kts | 250° |
| 2025-10-08 01:16 | 53.55930 | 49.88193 | 7532 ft | 272 kts | 253° |
| 2025-10-08 01:16 | 53.54874 | 49.82002 | 8839 ft | 277 kts | 254° |
| 2025-10-08 01:17 | 53.53769 | 49.75791 | 10188 ft | 281 kts | 254° |
| 2025-10-08 01:17 | 53.53200 | 49.72632 | 10833 ft | 284 kts | 254° |
| 2025-10-08 01:18 | 53.51997 | 49.65979 | 11546 ft | 314 kts | 255° |
| 2025-10-08 01:18 | 53.49979 | 49.54670 | 12656 ft | 351 kts | 255° |
| 2025-10-08 01:19 | 53.48532 | 49.46761 | 13978 ft | 356 kts | 255° |
| 2025-10-08 01:19 | 53.47068 | 49.38801 | 15319 ft | 361 kts | 255° |
| 2025-10-08 01:20 | 53.45423 | 49.30764 | 16590 ft | 369 kts | 246° |
| 2025-10-08 01:20 | 53.42276 | 49.23794 | 17795 ft | 382 kts | 227° |
| 2025-10-08 01:21 | 53.40320 | 49.20751 | 18372 ft | 386 kts | 225° |
| 2025-10-08 01:21 | 53.36250 | 49.14746 | 19447 ft | 393 kts | 225° |
| 2025-10-08 01:22 | 53.32167 | 49.08603 | 20466 ft | 400 kts | 225° |
| 2025-10-08 01:22 | 53.26426 | 48.98376 | 21879 ft | 403 kts | 242° |
| 2025-10-08 01:23 | 53.24065 | 48.89863 | 22783 ft | 406 kts | 252° |
| 2025-10-08 01:23 | 53.22133 | 48.80944 | 23628 ft | 411 kts | 253° |
| 2025-10-08 01:24 | 53.20261 | 48.71922 | 24460 ft | 417 kts | 253° |
| 2025-10-08 01:24 | 53.19276 | 48.67361 | 24881 ft | 419 kts | 253° |
| 2025-10-08 01:26 | 53.09953 | 48.25551 | 28157 ft | 437 kts | 253° |
| 2025-10-08 01:28 | 53.01978 | 47.92414 | 30637 ft | 438 kts | 253° |
| 2025-10-08 01:31 | 52.90740 | 47.46598 | 34277 ft | 422 kts | 253° |
| 2025-10-08 01:32 | 52.82634 | 47.14990 | 34293 ft | 432 kts | 242° |
| 2025-10-08 01:34 | 52.61611 | 46.93309 | 34292 ft | 453 kts | 213° |
| 2025-10-08 01:36 | 52.39399 | 46.74177 | 34286 ft | 450 kts | 213° |
| 2025-10-08 01:38 | 52.17257 | 46.55388 | 34280 ft | 447 kts | 213° |
| 2025-10-08 01:40 | 51.98884 | 46.39900 | 34272 ft | 446 kts | 213° |
| 2025-10-08 01:42 | 51.74161 | 46.19313 | 34262 ft | 444 kts | 213° |
| 2025-10-08 01:44 | 51.54901 | 46.03488 | 34253 ft | 444 kts | 212° |
| 2025-10-08 01:47 | 51.27142 | 45.82435 | 34208 ft | 440 kts | 211° |
| 2025-10-08 01:48 | 51.07824 | 45.67938 | 34198 ft | 438 kts | 210° |
| 2025-10-08 01:50 | 50.88292 | 45.45982 | 35021 ft | 428 kts | 223° |
| 2025-10-08 01:52 | 50.69253 | 45.23890 | 36177 ft | 422 kts | 221° |
| 2025-10-08 01:54 | 50.50302 | 45.02111 | 36169 ft | 422 kts | 221° |
| 2025-10-08 01:56 | 50.33699 | 44.83217 | 36163 ft | 420 kts | 221° |
| 2025-10-08 01:58 | 50.12403 | 44.59254 | 36157 ft | 419 kts | 221° |
| 2025-10-08 02:00 | 49.95859 | 44.40822 | 36153 ft | 417 kts | 221° |
| 2025-10-08 02:02 | 49.74616 | 44.17330 | 36144 ft | 417 kts | 221° |
| 2025-10-08 02:04 | 49.55676 | 43.96694 | 36141 ft | 416 kts | 221° |
| 2025-10-08 02:06 | 49.36096 | 43.77544 | 36142 ft | 416 kts | 217° |
| 2025-10-08 02:08 | 49.17113 | 43.57439 | 36141 ft | 410 kts | 224° |
| 2025-10-08 02:10 | 48.99132 | 43.35842 | 36139 ft | 410 kts | 223° |
| 2025-10-08 02:12 | 48.81315 | 43.14503 | 36137 ft | 408 kts | 224° |
| 2025-10-08 02:14 | 48.63511 | 42.93533 | 36120 ft | 405 kts | 223° |
| 2025-10-08 02:16 | 48.45835 | 42.72950 | 36110 ft | 400 kts | 223° |
| 2025-10-08 02:19 | 48.25968 | 42.50134 | 36098 ft | 398 kts | 222° |
| 2025-10-08 02:20 | 48.10505 | 42.32605 | 36087 ft | 398 kts | 222° |
| 2025-10-08 02:22 | 47.92923 | 42.12730 | 36074 ft | 397 kts | 221° |
| 2025-10-08 02:24 | 47.75258 | 41.93047 | 36042 ft | 396 kts | 221° |
| 2025-10-08 02:26 | 47.57658 | 41.73518 | 36018 ft | 394 kts | 221° |
| 2025-10-08 02:28 | 47.40824 | 41.55068 | 35998 ft | 393 kts | 221° |
| 2025-10-08 02:30 | 47.23233 | 41.35951 | 35981 ft | 398 kts | 221° |
| 2025-10-08 02:32 | 47.05598 | 41.16810 | 35962 ft | 392 kts | 221° |
| 2025-10-08 02:34 | 46.87989 | 40.97903 | 35939 ft | 394 kts | 220° |
| 2025-10-08 02:36 | 46.72696 | 40.81386 | 35929 ft | 393 kts | 220° |
| 2025-10-08 02:38 | 46.53200 | 40.60253 | 35914 ft | 385 kts | 220° |
| 2025-10-08 02:40 | 46.35863 | 40.41899 | 35896 ft | 383 kts | 219° |
| 2025-10-08 02:42 | 46.18717 | 40.23746 | 35887 ft | 385 kts | 219° |
| 2025-10-08 02:44 | 46.01566 | 40.05756 | 35877 ft | 381 kts | 219° |
| 2025-10-08 02:46 | 45.84281 | 39.87847 | 35858 ft | 383 kts | 219° |
| 2025-10-08 02:48 | 45.67142 | 39.70012 | 35829 ft | 384 kts | 219° |
| 2025-10-08 02:50 | 45.49891 | 39.52342 | 35824 ft | 382 kts | 218° |
| 2025-10-08 02:52 | 45.34762 | 39.37138 | 35820 ft | 381 kts | 218° |
| 2025-10-08 02:54 | 45.15433 | 39.17701 | 35817 ft | 379 kts | 217° |
| 2025-10-08 02:56 | 45.00440 | 39.02756 | 35820 ft | 378 kts | 217° |
| 2025-10-08 03:00 | 44.64056 | 38.67183 | 35803 ft | 373 kts | 216° |
| 2025-10-08 03:03 | 44.44927 | 38.48743 | 35793 ft | 371 kts | 216° |
| 2025-10-08 03:04 | 44.30016 | 38.34435 | 35787 ft | 370 kts | 216° |
| 2025-10-08 03:06 | 44.12878 | 38.18525 | 35783 ft | 369 kts | 215° |
| 2025-10-08 03:08 | 43.95733 | 38.02833 | 35781 ft | 369 kts | 215° |
| 2025-10-08 03:10 | 43.78557 | 37.87177 | 35779 ft | 370 kts | 215° |
| 2025-10-08 03:12 | 43.61144 | 37.71340 | 35779 ft | 375 kts | 214° |
| 2025-10-08 03:14 | 43.43646 | 37.55621 | 35773 ft | 375 kts | 214° |
| 2025-10-08 03:16 | 43.29119 | 37.42596 | 35771 ft | 375 kts | 214° |
| 2025-10-08 03:19 | 43.07235 | 37.23216 | 35766 ft | 375 kts | 213° |
| 2025-10-08 03:20 | 42.91881 | 37.09722 | 35765 ft | 374 kts | 213° |
| 2025-10-08 03:23 | 42.72354 | 36.92333 | 35766 ft | 374 kts | 224° |
| 2025-10-08 03:24 | 42.63294 | 36.70563 | 35764 ft | 380 kts | 238° |
| 2025-10-08 03:26 | 42.53859 | 36.44896 | 35758 ft | 380 kts | 238° |
| 2025-10-08 03:28 | 42.44457 | 36.19308 | 35758 ft | 379 kts | 238° |
| 2025-10-08 03:30 | 42.34986 | 35.93879 | 35758 ft | 378 kts | 238° |
| 2025-10-08 03:32 | 42.25495 | 35.68510 | 35757 ft | 379 kts | 237° |
| 2025-10-08 03:34 | 42.15867 | 35.43218 | 35761 ft | 380 kts | 237° |
| 2025-10-08 03:36 | 42.06223 | 35.17843 | 35758 ft | 381 kts | 237° |
| 2025-10-08 03:38 | 41.93017 | 34.96542 | 35759 ft | 370 kts | 220° |
| 2025-10-08 03:40 | 41.79579 | 34.80408 | 35770 ft | 371 kts | 220° |
| 2025-10-08 03:42 | 41.62239 | 34.59791 | 35800 ft | 371 kts | 219° |
| 2025-10-08 03:44 | 41.48751 | 34.43758 | 35828 ft | 372 kts | 219° |
| 2025-10-08 03:46 | 41.31348 | 34.23223 | 35856 ft | 370 kts | 219° |
| 2025-10-08 03:48 | 41.17793 | 34.07420 | 35865 ft | 371 kts | 219° |
| 2025-10-08 03:50 | 41.00380 | 33.87156 | 35865 ft | 370 kts | 219° |
| 2025-10-08 03:52 | 40.86841 | 33.71489 | 35864 ft | 370 kts | 219° |
| 2025-10-08 03:54 | 40.69394 | 33.51462 | 35866 ft | 369 kts | 219° |
| 2025-10-08 03:56 | 40.55833 | 33.35994 | 35867 ft | 369 kts | 219° |
| 2025-10-08 03:59 | 40.36418 | 33.13998 | 35872 ft | 369 kts | 219° |
| 2025-10-08 04:00 | 40.22823 | 32.98655 | 35875 ft | 368 kts | 218° |
| 2025-10-08 04:02 | 40.07182 | 32.81487 | 35876 ft | 366 kts | 212° |
| 2025-10-08 04:04 | 39.89928 | 32.69568 | 35886 ft | 365 kts | 208° |
| 2025-10-08 04:06 | 39.71868 | 32.57506 | 35895 ft | 365 kts | 208° |
| 2025-10-08 04:08 | 39.56025 | 32.46959 | 35892 ft | 365 kts | 208° |
| 2025-10-08 04:10 | 39.35668 | 32.33568 | 35881 ft | 365 kts | 208° |
| 2025-10-08 04:12 | 39.19797 | 32.23265 | 35874 ft | 365 kts | 208° |
| 2025-10-08 04:15 | 38.97112 | 32.08564 | 35869 ft | 365 kts | 208° |
| 2025-10-08 04:16 | 38.83505 | 31.99802 | 35869 ft | 365 kts | 208° |
| 2025-10-08 04:18 | 38.63105 | 31.86744 | 35870 ft | 364 kts | 208° |
| 2025-10-08 04:20 | 38.45093 | 31.75284 | 35561 ft | 361 kts | 208° |
| 2025-10-08 04:22 | 38.27933 | 31.64405 | 32047 ft | 330 kts | 208° |
| 2025-10-08 04:24 | 38.11971 | 31.54713 | 28831 ft | 311 kts | 198° |
| 2025-10-08 04:26 | 37.94992 | 31.53061 | 25755 ft | 297 kts | 191° |
| 2025-10-08 04:27 | 37.86854 | 31.52545 | 24287 ft | 288 kts | 190° |
| 2025-10-08 04:28 | 37.82910 | 31.52296 | 23565 ft | 283 kts | 190° |
| 2025-10-08 04:28 | 37.78991 | 31.52049 | 22847 ft | 280 kts | 190° |
| 2025-10-08 04:29 | 37.75143 | 31.51716 | 22138 ft | 274 kts | 193° |
| 2025-10-08 04:30 | 37.69506 | 31.50864 | 21097 ft | 270 kts | 193° |
| 2025-10-08 04:30 | 37.67644 | 31.50593 | 20754 ft | 275 kts | 192° |
| 2025-10-08 04:30 | 37.63742 | 31.50036 | 20037 ft | 287 kts | 192° |
| 2025-10-08 04:31 | 37.59768 | 31.49477 | 19305 ft | 286 kts | 192° |
| 2025-10-08 04:31 | 37.55836 | 31.48926 | 18585 ft | 283 kts | 191° |
| 2025-10-08 04:32 | 37.53886 | 31.48654 | 18229 ft | 281 kts | 191° |
| 2025-10-08 04:32 | 37.48092 | 31.47845 | 17175 ft | 277 kts | 191° |
| 2025-10-08 04:33 | 37.46172 | 31.47577 | 16827 ft | 276 kts | 191° |
| 2025-10-08 04:33 | 37.42365 | 31.47044 | 16140 ft | 274 kts | 191° |
| 2025-10-08 04:34 | 37.36736 | 31.46259 | 15130 ft | 271 kts | 190° |
| 2025-10-08 04:34 | 37.32998 | 31.45740 | 14461 ft | 269 kts | 190° |
| 2025-10-08 04:35 | 37.29283 | 31.45226 | 13797 ft | 267 kts | 189° |
| 2025-10-08 04:35 | 37.25621 | 31.44719 | 13144 ft | 265 kts | 189° |
| 2025-10-08 04:36 | 37.21965 | 31.44213 | 12494 ft | 264 kts | 189° |
| 2025-10-08 04:36 | 37.18319 | 31.43710 | 11838 ft | 263 kts | 188° |
| 2025-10-08 04:37 | 37.16494 | 31.43458 | 11505 ft | 262 kts | 188° |
| 2025-10-08 04:37 | 37.11212 | 31.42285 | 10665 ft | 257 kts | 210° |
| 2025-10-08 04:38 | 37.08527 | 31.39160 | 10136 ft | 268 kts | 227° |
| 2025-10-08 04:38 | 37.06228 | 31.35644 | 9885 ft | 254 kts | 229° |
| 2025-10-08 04:39 | 37.03978 | 31.32236 | 9281 ft | 254 kts | 229° |
| 2025-10-08 04:39 | 37.02846 | 31.30546 | 8972 ft | 253 kts | 229° |
| 2025-10-08 04:40 | 36.99434 | 31.25494 | 8045 ft | 253 kts | 229° |
| 2025-10-08 04:40 | 36.98296 | 31.23818 | 7735 ft | 253 kts | 229° |
| 2025-10-08 04:41 | 36.96052 | 31.20460 | 7115 ft | 252 kts | 230° |
| 2025-10-08 04:41 | 36.92659 | 31.15446 | 6180 ft | 251 kts | 230° |
| 2025-10-08 04:42 | 36.90405 | 31.12145 | 5558 ft | 250 kts | 230° |
| 2025-10-08 04:42 | 36.88145 | 31.08845 | 4926 ft | 249 kts | 230° |
| 2025-10-08 04:43 | 36.85890 | 31.05556 | 4292 ft | 248 kts | 230° |
| 2025-10-08 04:43 | 36.83658 | 31.02304 | 3677 ft | 237 kts | 230° |
| 2025-10-08 04:44 | 36.81667 | 30.99406 | 3298 ft | 204 kts | 230° |
| 2025-10-08 04:44 | 36.80761 | 30.98087 | 2977 ft | 199 kts | 230° |
| 2025-10-08 04:45 | 36.78956 | 30.95461 | 2483 ft | 186 kts | 230° |
| 2025-10-08 04:45 | 36.76870 | 30.91942 | 2294 ft | 169 kts | 257° |
| 2025-10-08 04:46 | 36.76973 | 30.88994 | 2232 ft | 171 kts | 276° |
| 2025-10-08 04:46 | 36.77296 | 30.86071 | 2136 ft | 171 kts | 276° |
| 2025-10-08 04:47 | 36.77585 | 30.83115 | 2043 ft | 171 kts | 275° |
| 2025-10-08 04:47 | 36.77726 | 30.81642 | 1998 ft | 171 kts | 275° |
| 2025-10-08 04:48 | 36.78956 | 30.79343 | 1835 ft | 182 kts | 347° |
| 2025-10-08 04:48 | 36.81431 | 30.79771 | 1488 ft | 175 kts | 6° |
| 2025-10-08 04:49 | 36.83678 | 30.80114 | 1040 ft | 153 kts | 5° |
| 2025-10-08 04:49 | 36.86640 | 30.80521 | 489 ft | 137 kts | 5° |
| 2025-10-08 04:50 | 36.88530 | 30.80779 | 190 ft | 130 kts | 5° |
| 2025-10-08 04:50 | 36.89793 | 30.80952 | 185 ft | 35 kts | 358° |
| 2025-10-08 04:51 | 36.90092 | 30.80825 | 185 ft | 16 kts | 296° |
| 2025-10-08 04:51 | 36.90026 | 30.80750 | 185 ft | 18 kts | 187° |
| 2025-10-08 04:52 | 36.89729 | 30.80707 | 185 ft | 25 kts | 184° |
| 2025-10-08 04:52 | 36.89562 | 30.80626 | 185 ft | 8 kts | 279° |
| 2025-10-08 04:53 | 36.89537 | 30.80444 | 185 ft | 12 kts | 186° |
| 2025-10-08 04:53 | 36.89516 | 30.80441 | 185 ft | 0 kts | 187° |